Time;durP1;ratioP1;P1;durP2;ratioP2;P2;SDS_P1;SDS_P2;PMS_P1;PMS_P2;Temp;Humidity;BMP_temperature;BMP_pressure;BME280_temperature;BME280_humidity;BME280_pressure;Samples;Min_cycle;Max_cycle;Signal;HPM_P1;HPM_P2
2022/09/18 00:00:33;;;;;;;;;;;;;;;;;;5074451;28;19912;-23
2022/09/18 00:02:59;;;;;;;;;;;;;;;;;;5074601;28;19920;-23
2022/09/18 00:05:24;;;;;;;;;;;;;;;;;;5074189;28;20278;-23
2022/09/18 00:07:50;;;;;;;;;;;;;;;;;;5074611;28;19920;-23
2022/09/18 00:10:16;;;;;;;;;;;;;;;;;;5074392;28;20315;-23
2022/09/18 00:12:42;;;;;;;;;;;;;;;;;;5074419;28;19908;-23
2022/09/18 00:15:08;;;;;;;;;;;;;;;;;;5074732;28;19920;-24
2022/09/18 00:17:34;;;;;;;;;;;;;;;;;;5076179;28;19908;-23
2022/09/18 00:20:00;;;;;;;;;;;;;;;;;;5078210;28;19913;-23
2022/09/18 00:22:26;;;;;;;;;;;;;;;;;;5078060;28;19935;-23
2022/09/18 00:24:52;;;;;;;;;;;;;;;;;;5078350;28;20239;-23
2022/09/18 00:27:18;;;;;;;;;;;;;;;;;;5077930;28;19916;-23
2022/09/18 00:29:44;;;;;;;;;;;;;;;;;;5077951;28;19908;-23
2022/09/18 00:32:10;;;;;;;;;;;;;;;;;;5077851;28;20358;-23
2022/09/18 00:34:37;;;;;;;;;;;;;;;;;;5077916;28;19917;-23
2022/09/18 00:37:03;;;;;;;;;;;;;;;;;;5077790;28;19923;-23
2022/09/18 00:39:29;;;;;;;;;;;;;;;;;;5060050;28;20339;-23
2022/09/18 00:41:55;;;;;;;;;;;;;;;;;;5077654;28;19917;-23
2022/09/18 00:44:21;;;;;;;;;;;;;;;;;;5077647;28;19982;-23
2022/09/18 00:46:47;;;;;;;;;;;;;;;;;;5059856;28;19980;-23
2022/09/18 00:49:13;;;;;;;;;;;;;;;;;;5077634;28;19923;-23
2022/09/18 00:51:39;;;;;;;;;;;;;;;;;;5077572;28;19912;-23
2022/09/18 00:54:05;;;;;;;;;;;;;;;;;;5077746;28;19919;-23
2022/09/18 00:56:31;;;;;;;;;;;;;;;;;;5077505;28;20248;-23
2022/09/18 00:58:57;;;;;;;;;;;;;;;;;;5077390;28;19989;-23
2022/09/18 01:01:23;;;;;;;;;;;;;;;;;;5077391;28;19920;-23
2022/09/18 01:03:49;;;;;;;;;;;;;;;;;;5077267;28;19996;-23
2022/09/18 01:06:15;;;;;;;;;;;;;;;;;;5077013;28;20258;-23
2022/09/18 01:08:41;;;;;;;;;;;;;;;;;;5077593;28;19916;-23
2022/09/18 01:11:07;;;;;;;;;;;;;;;;;;5059536;28;20304;-23
2022/09/18 01:13:33;;;;;;;;;;;;;;;;;;5077131;28;19912;-23
2022/09/18 01:15:59;;;;;;;;;;;;;;;;;;5077141;28;19935;-23
2022/09/18 01:18:25;;;;;;;;;;;;;;;;;;5077023;28;19913;-23
2022/09/18 01:20:51;;;;;;;;;;;;;;;;;;5077025;28;19908;-23
2022/09/18 01:23:18;;;;;;;;;;;;;;;;;;5076923;28;19970;-23
2022/09/18 01:25:44;;;;;;;;;;;;;;;;;;5077007;28;19919;-23
2022/09/18 01:28:09;;;;;;;;;;;;;;;;;;5076186;28;19916;-23
2022/09/18 01:30:35;;;;;;;;;;;;;;;;;;5076837;28;20343;-23
2022/09/18 01:33:01;;;;;;;;;;;;;;;;;;5076740;28;20019;-23
2022/09/18 01:35:29;;;;;;;;;;;;;;;;;;5076814;28;19913;-23
2022/09/18 01:37:55;;;;;;;;;;;;;;;;;;5076682;28;19916;-23
2022/09/18 01:40:21;;;;;;;;;;;;;;;;;;5076684;28;20327;-23
2022/09/18 01:42:47;;;;;;;;;;;;;;;;;;5058923;28;19920;-23
2022/09/18 01:45:13;;;;;;;;;;;;;;;;;;5076817;28;20346;-23
2022/09/18 01:47:39;;;;;;;;;;;;;;;;;;5076486;28;19916;-23
2022/09/18 01:50:05;;;;;;;;;;;;;;;;;;5076768;28;19951;-23
2022/09/18 01:52:31;;;;;;;;;;;;;;;;;;5076342;28;20262;-23
2022/09/18 01:54:57;;;;;;;;;;;;;;;;;;5058655;28;19916;-23
2022/09/18 01:57:23;;;;;;;;;;;;;;;;;;5058625;28;19969;-23
2022/09/18 01:59:49;;;;;;;;;;;;;;;;;;5076217;28;19924;-23
2022/09/18 02:02:15;;;;;;;;;;;;;;;;;;5076141;28;19915;-23
2022/09/18 02:04:41;;;;;;;;;;;;;;;;;;5076212;28;20001;-23
2022/09/18 02:07:07;;;;;;;;;;;;;;;;;;5075903;28;19959;-23
2022/09/18 02:09:33;;;;;;;;;;;;;;;;;;5076077;28;19936;-23
2022/09/18 02:11:59;;;;;;;;;;;;;;;;;;5076249;28;20259;-23
2022/09/18 02:14:25;;;;;;;;;;;;;;;;;;5076053;28;20327;-23
2022/09/18 02:16:51;;;;;;;;;;;;;;;;;;5075965;28;19917;-23
2022/09/18 02:19:17;;;;;;;;;;;;;;;;;;5076130;28;20330;-23
2022/09/18 02:21:43;;;;;;;;;;;;;;;;;;5076075;28;19920;-23
2022/09/18 02:24:09;;;;;;;;;;;;;;;;;;5076109;28;19966;-23
2022/09/18 02:26:35;;;;;;;;;;;;;;;;;;5075654;28;20338;-23
2022/09/18 02:29:01;;;;;;;;;;;;;;;;;;5075764;28;20019;-23
2022/09/18 02:31:27;;;;;;;;;;;;;;;;;;5057938;28;20391;-23
2022/09/18 02:33:53;;;;;;;;;;;;;;;;;;5075471;28;19938;-23
2022/09/18 02:36:19;;;;;;;;;;;;;;;;;;5075853;28;19909;-23
2022/09/18 02:38:45;;;;;;;;;;;;;;;;;;5075493;28;20011;-23
2022/09/18 02:41:11;;;;;;;;;;;;;;;;;;5075155;28;19908;-23
2022/09/18 02:43:37;;;;;;;;;;;;;;;;;;5075445;28;19923;-23
2022/09/18 02:46:03;;;;;;;;;;;;;;;;;;5057990;28;19913;-23
2022/09/18 02:48:29;;;;;;;;;;;;;;;;;;5075308;28;19917;-23
2022/09/18 02:50:55;;;;;;;;;;;;;;;;;;5075599;28;19912;-23
2022/09/18 02:53:20;;;;;;;;;;;;;;;;;;5075245;28;20197;-23
2022/09/18 02:55:46;;;;;;;;;;;;;;;;;;5075179;28;19912;-23
2022/09/18 02:58:13;;;;;;;;;;;;;;;;;;5075180;28;19942;-23
2022/09/18 03:00:41;;;;;;;;;;;;;;;;;;5075190;28;19912;-23
2022/09/18 03:03:07;;;;;;;;;;;;;;;;;;5075261;28;19912;-23
2022/09/18 03:05:33;;;;;;;;;;;;;;;;;;5074913;28;20051;-23
2022/09/18 03:07:59;;;;;;;;;;;;;;;;;;5074921;28;20398;-23
2022/09/18 03:10:25;;;;;;;;;;;;;;;;;;5075237;28;19978;-23
2022/09/18 03:12:51;;;;;;;;;;;;;;;;;;5074897;28;20339;-23
2022/09/18 03:15:17;;;;;;;;;;;;;;;;;;5075128;28;20023;-23
2022/09/18 03:17:43;;;;;;;;;;;;;;;;;;5075165;28;19935;-23
2022/09/18 03:20:09;;;;;;;;;;;;;;;;;;5075111;28;20006;-23
2022/09/18 03:22:35;;;;;;;;;;;;;;;;;;5075062;28;20363;-23
2022/09/18 03:25:01;;;;;;;;;;;;;;;;;;5074905;28;20327;-23
2022/09/18 03:27:27;;;;;;;;;;;;;;;;;;5074755;28;19967;-23
2022/09/18 03:29:53;;;;;;;;;;;;;;;;;;5074820;28;19912;-23
2022/09/18 03:32:19;;;;;;;;;;;;;;;;;;5074706;28;19921;-24
2022/09/18 03:34:45;;;;;;;;;;;;;;;;;;5074760;28;19909;-23
2022/09/18 03:37:11;;;;;;;;;;;;;;;;;;5074933;28;19999;-23
2022/09/18 03:39:37;;;;;;;;;;;;;;;;;;5074950;28;20273;-23
2022/09/18 03:42:03;;;;;;;;;;;;;;;;;;5074812;28;19931;-23
2022/09/18 03:44:29;;;;;;;;;;;;;;;;;;5074660;28;19908;-23
2022/09/18 03:46:55;;;;;;;;;;;;;;;;;;5056817;28;19958;-23
2022/09/18 03:49:21;;;;;;;;;;;;;;;;;;5074650;28;19912;-23
2022/09/18 03:51:47;;;;;;;;;;;;;;;;;;5074986;28;20348;-23
2022/09/18 03:54:13;;;;;;;;;;;;;;;;;;5078982;28;19999;-23
2022/09/18 03:56:39;;;;;;;;;;;;;;;;;;5078560;28;19959;-23
2022/09/18 03:59:05;;;;;;;;;;;;;;;;;;5078639;28;20343;-23
2022/09/18 04:01:31;;;;;;;;;;;;;;;;;;5078589;28;19924;-23
2022/09/18 04:03:57;;;;;;;;;;;;;;;;;;5078742;28;19912;-23
2022/09/18 04:06:23;;;;;;;;;;;;;;;;;;5078213;28;19920;-23
2022/09/18 04:08:49;;;;;;;;;;;;;;;;;;5078494;28;20367;-23
2022/09/18 04:11:15;;;;;;;;;;;;;;;;;;5078268;28;19943;-23
2022/09/18 04:13:41;;;;;;;;;;;;;;;;;;5078239;28;19916;-23
2022/09/18 04:16:07;;;;;;;;;;;;;;;;;;5078262;28;20011;-23
2022/09/18 04:18:33;;;;;;;;;;;;;;;;;;5078501;28;20256;-23
2022/09/18 04:20:59;;;;;;;;;;;;;;;;;;5078115;28;20361;-23
2022/09/18 04:23:25;;;;;;;;;;;;;;;;;;5078079;28;19908;-23
2022/09/18 04:25:51;;;;;;;;;;;;;;;;;;5078059;28;19913;-23
2022/09/18 04:28:18;;;;;;;;;;;;;;;;;;5077831;28;20339;-23
2022/09/18 04:30:44;;;;;;;;;;;;;;;;;;5060221;28;19913;-23
2022/09/18 04:33:10;;;;;;;;;;;;;;;;;;5077895;28;19919;-23
2022/09/18 04:35:36;;;;;;;;;;;;;;;;;;5077921;28;19913;-23
2022/09/18 04:38:02;;;;;;;;;;;;;;;;;;5078068;28;19965;-23
2022/09/18 04:40:28;;;;;;;;;;;;;;;;;;5078101;28;20205;-23
2022/09/18 04:42:54;;;;;;;;;;;;;;;;;;5060087;28;19942;-23
2022/09/18 04:45:20;;;;;;;;;;;;;;;;;;5077764;28;19908;-23
2022/09/18 04:47:46;;;;;;;;;;;;;;;;;;5077592;28;20251;-23
2022/09/18 04:50:12;;;;;;;;;;;;;;;;;;5077670;28;19909;-23
2022/09/18 04:52:38;;;;;;;;;;;;;;;;;;5077733;28;19912;-23
2022/09/18 04:55:04;;;;;;;;;;;;;;;;;;5077574;28;19939;-23
2022/09/18 04:57:30;;;;;;;;;;;;;;;;;;5077418;28;19913;-23
2022/09/18 04:59:56;;;;;;;;;;;;;;;;;;5077698;28;19919;-23
2022/09/18 05:02:23;;;;;;;;;;;;;;;;;;5077249;28;19939;-23
2022/09/18 05:04:49;;;;;;;;;;;;;;;;;;5059522;28;19913;-23
2022/09/18 05:07:15;;;;;;;;;;;;;;;;;;5077116;28;19986;-23
2022/09/18 05:09:41;;;;;;;;;;;;;;;;;;5077543;28;19912;-23
2022/09/18 05:12:08;;;;;;;;;;;;;;;;;;5077193;28;20007;-23
2022/09/18 05:14:34;;;;;;;;;;;;;;;;;;5077484;28;20003;-23
2022/09/18 05:17:00;;;;;;;;;;;;;;;;;;5077196;28;19913;-23
2022/09/18 05:19:26;;;;;;;;;;;;;;;;;;5077315;28;19912;-23
2022/09/18 05:21:52;;;;;;;;;;;;;;;;;;5077032;28;19927;-23
2022/09/18 05:24:18;;;;;;;;;;;;;;;;;;5077345;28;19916;-23
2022/09/18 05:26:44;;;;;;;;;;;;;;;;;;5076896;28;19913;-23
2022/09/18 05:29:10;;;;;;;;;;;;;;;;;;5076947;28;19923;-23
2022/09/18 05:31:36;;;;;;;;;;;;;;;;;;5076855;28;19908;-23
2022/09/18 05:34:02;;;;;;;;;;;;;;;;;;5059086;28;19913;-23
2022/09/18 05:36:28;;;;;;;;;;;;;;;;;;5076770;28;19917;-23
2022/09/18 05:38:54;;;;;;;;;;;;;;;;;;5077020;28;19908;-23
2022/09/18 05:41:20;;;;;;;;;;;;;;;;;;5076613;28;19912;-23
2022/09/18 05:43:46;;;;;;;;;;;;;;;;;;5076618;28;19908;-23
2022/09/18 05:46:13;;;;;;;;;;;;;;;;;;5076536;28;19919;-23
2022/09/18 05:48:39;;;;;;;;;;;;;;;;;;5076462;28;19919;-23
2022/09/18 05:51:05;;;;;;;;;;;;;;;;;;5058711;28;20007;-23
2022/09/18 05:53:31;;;;;;;;;;;;;;;;;;5076369;28;19951;-23
2022/09/18 05:55:57;;;;;;;;;;;;;;;;;;5076691;28;19912;-23
2022/09/18 05:58:24;;;;;;;;;;;;;;;;;;5076443;28;19952;-23
2022/09/18 06:00:51;;;;;;;;;;;;;;;;;;5076342;28;19917;-23
2022/09/18 06:03:17;;;;;;;;;;;;;;;;;;5076092;28;19984;-23
2022/09/18 06:05:43;;;;;;;;;;;;;;;;;;5076203;28;19959;-23
2022/09/18 06:08:09;;;;;;;;;;;;;;;;;;5076360;28;20394;-23
2022/09/18 06:10:38;;;;;;;;;;;;;;;;;;5058403;28;19913;-23
2022/09/18 06:13:04;;;;;;;;;;;;;;;;;;5075987;28;20003;-23
2022/09/18 06:15:30;;;;;;;;;;;;;;;;;;5075310;28;20404;-23
2022/09/18 06:17:56;;;;;;;;;;;;;;;;;;5076197;28;19923;-23
2022/09/18 06:20:22;;;;;;;;;;;;;;;;;;5075914;28;20401;-23
2022/09/18 06:22:48;;;;;;;;;;;;;;;;;;5075707;28;20304;-23
2022/09/18 06:25:18;;;;;;;;;;;;;;;;;;5075862;28;19999;-23
2022/09/18 06:27:44;;;;;;;;;;;;;;;;;;5075611;28;20020;-23
2022/09/18 06:30:09;;;;;;;;;;;;;;;;;;5075639;28;19912;-23
2022/09/18 06:32:35;;;;;;;;;;;;;;;;;;5075581;28;19916;-23
2022/09/18 06:35:01;;;;;;;;;;;;;;;;;;5075698;28;19913;-23
2022/09/18 06:37:27;;;;;;;;;;;;;;;;;;5075863;28;19919;-23
2022/09/18 06:39:53;;;;;;;;;;;;;;;;;;5075679;28;19912;-23
2022/09/18 06:42:19;;;;;;;;;;;;;;;;;;5075437;28;19920;-23
2022/09/18 06:44:45;;;;;;;;;;;;;;;;;;5075683;28;19935;-23
2022/09/18 06:47:11;;;;;;;;;;;;;;;;;;5075532;28;19916;-23
2022/09/18 06:49:37;;;;;;;;;;;;;;;;;;5075299;28;19908;-23
2022/09/18 06:52:03;;;;;;;;;;;;;;;;;;5075192;28;19916;-23
2022/09/18 06:54:29;;;;;;;;;;;;;;;;;;5075299;28;19912;-23
2022/09/18 06:56:56;;;;;;;;;;;;;;;;;;5075242;28;19913;-23
2022/09/18 06:59:22;;;;;;;;;;;;;;;;;;5075406;28;20003;-23
2022/09/18 07:01:48;;;;;;;;;;;;;;;;;;5075043;28;20327;-23
2022/09/18 07:04:14;;;;;;;;;;;;;;;;;;5075055;28;19923;-23
2022/09/18 07:06:39;;;;;;;;;;;;;;;;;;5074830;28;19920;-23
2022/09/18 07:09:05;;;;;;;;;;;;;;;;;;5075327;28;20347;-23
2022/09/18 07:11:31;;;;;;;;;;;;;;;;;;5075050;28;19912;-23
2022/09/18 07:13:57;;;;;;;;;;;;;;;;;;5074964;28;19912;-23
2022/09/18 07:16:23;;;;;;;;;;;;;;;;;;5074966;28;19924;-23
2022/09/18 07:18:49;;;;;;;;;;;;;;;;;;5074997;28;19916;-24
2022/09/18 07:21:15;;;;;;;;;;;;;;;;;;5075125;28;20318;-23
2022/09/18 07:23:41;;;;;;;;;;;;;;;;;;5074741;28;19963;-23
2022/09/18 07:26:08;;;;;;;;;;;;;;;;;;5074238;28;20358;-23
2022/09/18 07:28:33;;;;;;;;;;;;;;;;;;5074317;28;19947;-23
2022/09/18 07:30:59;;;;;;;;;;;;;;;;;;5074810;28;20390;-23
2022/09/18 07:33:25;;;;;;;;;;;;;;;;;;5074941;28;19909;-23
2022/09/18 07:35:52;;;;;;;;;;;;;;;;;;5057035;28;19987;-23
2022/09/18 07:38:18;;;;;;;;;;;;;;;;;;5074674;28;20275;-23
2022/09/18 07:40:44;;;;;;;;;;;;;;;;;;5056950;28;19916;-24
2022/09/18 07:43:11;;;;;;;;;;;;;;;;;;5074497;28;20377;-24
2022/09/18 07:45:37;;;;;;;;;;;;;;;;;;5074563;28;19919;-24
2022/09/18 07:48:02;;;;;;;;;;;;;;;;;;5075344;28;19913;-23
2022/09/18 07:50:28;;;;;;;;;;;;;;;;;;5074624;28;20336;-23
2022/09/18 07:52:54;;;;;;;;;;;;;;;;;;5074577;28;19983;-23
2022/09/18 07:55:20;;;;;;;;;;;;;;;;;;5074596;28;19952;-23
2022/09/18 07:57:47;;;;;;;;;;;;;;;;;;5074569;28;19913;-24
2022/09/18 08:00:13;;;;;;;;;;;;;;;;;;5056808;28;19912;-24
2022/09/18 08:02:39;;;;;;;;;;;;;;;;;;5074398;28;19908;-24
2022/09/18 08:05:05;;;;;;;;;;;;;;;;;;5072592;28;19966;-23
2022/09/18 08:07:31;;;;;;;;;;;;;;;;;;5054536;28;19917;-24
2022/09/18 08:09:57;;;;;;;;;;;;;;;;;;5054260;28;20406;-24
2022/09/18 08:12:23;;;;;;;;;;;;;;;;;;5054270;28;20011;-24
2022/09/18 08:14:49;;;;;;;;;;;;;;;;;;5054427;28;19913;-24
2022/09/18 08:17:15;;;;;;;;;;;;;;;;;;5054303;28;19920;-24
2022/09/18 08:19:41;;;;;;;;;;;;;;;;;;5054258;28;19931;-21
2022/09/18 08:22:07;;;;;;;;;;;;;;;;;;5054441;28;19909;-24
2022/09/18 08:24:33;;;;;;;;;;;;;;;;;;5036729;28;20434;-23
2022/09/18 08:27:02;;;;;;;;;;;;;;;;;;5036587;28;19920;-23
2022/09/18 08:29:28;;;;;;;;;;;;;;;;;;5054108;28;19967;-23
2022/09/18 08:31:54;;;;;;;;;;;;;;;;;;5054413;28;19917;-23
2022/09/18 08:34:20;;;;;;;;;;;;;;;;;;5054158;28;19996;-24
2022/09/18 08:36:46;;;;;;;;;;;;;;;;;;5037125;28;19941;-23
2022/09/18 08:39:12;;;;;;;;;;;;;;;;;;5057016;28;19913;-23
2022/09/18 08:41:38;;;;;;;;;;;;;;;;;;5058001;28;19913;-23
2022/09/18 08:44:04;;;;;;;;;;;;;;;;;;5057651;28;19917;-23
2022/09/18 08:46:30;;;;;;;;;;;;;;;;;;5057839;28;19915;-23
2022/09/18 08:48:56;;;;;;;;;;;;;;;;;;5057673;28;19923;-23
2022/09/18 08:51:22;;;;;;;;;;;;;;;;;;5057601;28;19948;-23
2022/09/18 08:53:48;;;;;;;;;;;;;;;;;;5057491;28;19974;-23
2022/09/18 08:56:14;;;;;;;;;;;;;;;;;;5057565;28;19956;-23
2022/09/18 08:58:40;;;;;;;;;;;;;;;;;;5057987;28;19963;-23
2022/09/18 09:01:06;;;;;;;;;;;;;;;;;;5057378;28;19919;-23
2022/09/18 09:03:32;;;;;;;;;;;;;;;;;;5057594;28;19908;-24
2022/09/18 09:05:58;;;;;;;;;;;;;;;;;;5066366;28;20351;-23
2022/09/18 09:08:24;;;;;;;;;;;;;;;;;;5093337;28;19981;-23
2022/09/18 09:10:50;;;;;;;;;;;;;;;;;;5097573;28;19916;-34
2022/09/18 09:13:16;;;;;;;;;;;;;;;;;;5097436;28;19908;-23
2022/09/18 09:15:44;;;;;;;;;;;;;;;;;;5097396;28;20266;-23
2022/09/18 09:18:10;;;;;;;;;;;;;;;;;;5097375;28;19923;-23
2022/09/18 09:20:36;;;;;;;;;;;;;;;;;;5097369;28;19912;-23
2022/09/18 09:23:02;;;;;;;;;;;;;;;;;;5097318;28;19912;-23
2022/09/18 09:25:28;;;;;;;;;;;;;;;;;;5097577;28;20328;-23
2022/09/18 09:27:54;;;;;;;;;;;;;;;;;;5097370;28;19920;-23
2022/09/18 09:30:20;;;;;;;;;;;;;;;;;;5079257;28;20264;-23
2022/09/18 09:32:46;;;;;;;;;;;;;;;;;;5096941;28;20000;-23
2022/09/18 09:35:12;;;;;;;;;;;;;;;;;;5097307;28;19955;-23
2022/09/18 09:37:38;;;;;;;;;;;;;;;;;;5097010;28;19913;-23
2022/09/18 09:40:05;;;;;;;;;;;;;;;;;;5079173;28;20284;-23
2022/09/18 09:42:31;;;;;;;;;;;;;;;;;;5096951;28;20379;-23
2022/09/18 09:44:57;;;;;;;;;;;;;;;;;;5097188;28;19912;-23
2022/09/18 09:47:23;;;;;;;;;;;;;;;;;;5096856;28;19935;-23
2022/09/18 09:49:49;;;;;;;;;;;;;;;;;;5096600;28;19912;-23
2022/09/18 09:52:15;;;;;;;;;;;;;;;;;;5096640;28;19912;-23
2022/09/18 09:54:41;;;;;;;;;;;;;;;;;;5096984;28;19942;-23
2022/09/18 09:57:07;;;;;;;;;;;;;;;;;;5096898;28;19970;-23
2022/09/18 09:59:33;;;;;;;;;;;;;;;;;;5096555;28;19956;-23
2022/09/18 10:01:59;;;;;;;;;;;;;;;;;;5096471;28;20255;-23
2022/09/18 10:04:25;;;;;;;;;;;;;;;;;;5096501;28;19908;-23
2022/09/18 10:06:51;;;;;;;;;;;;;;;;;;5096217;28;19920;-23
2022/09/18 10:09:17;;;;;;;;;;;;;;;;;;5096652;28;19954;-23
2022/09/18 10:11:43;;;;;;;;;;;;;;;;;;5096319;28;19923;-23
2022/09/18 10:14:08;;;;;;;;;;;;;;;;;;5096806;28;19908;-23
2022/09/18 10:16:34;;;;;;;;;;;;;;;;;;5096228;28;19920;-23
2022/09/18 10:19:00;;;;;;;;;;;;;;;;;;5096237;28;19978;-23
2022/09/18 10:21:27;;;;;;;;;;;;;;;;;;5096159;28;20254;-23
2022/09/18 10:23:54;;;;;;;;;;;;;;;;;;5096097;28;19909;-23
2022/09/18 10:26:20;;;;;;;;;;;;;;;;;;5095986;28;20351;-23
2022/09/18 10:28:46;;;;;;;;;;;;;;;;;;5096084;28;19962;-23
2022/09/18 10:31:12;;;;;;;;;;;;;;;;;;5096311;28;19912;-23
2022/09/18 10:33:38;;;;;;;;;;;;;;;;;;5095873;28;20305;-23
2022/09/18 10:36:04;;;;;;;;;;;;;;;;;;5096200;28;19955;-23
2022/09/18 10:38:31;;;;;;;;;;;;;;;;;;5077972;28;20253;-23
2022/09/18 10:40:57;;;;;;;;;;;;;;;;;;5096025;28;19912;-23
2022/09/18 10:43:23;;;;;;;;;;;;;;;;;;5095684;28;19912;-23
2022/09/18 10:45:49;;;;;;;;;;;;;;;;;;5095624;28;19970;-23
2022/09/18 10:48:15;;;;;;;;;;;;;;;;;;5095572;28;19912;-23
2022/09/18 10:50:41;;;;;;;;;;;;;;;;;;5077683;28;19923;-23
2022/09/18 10:53:07;;;;;;;;;;;;;;;;;;5095812;28;19908;-23
2022/09/18 10:55:33;;;;;;;;;;;;;;;;;;5095541;28;20238;-23
2022/09/18 10:57:59;;;;;;;;;;;;;;;;;;5096230;28;19912;-23
2022/09/18 11:00:26;;;;;;;;;;;;;;;;;;5095567;28;19923;-23
2022/09/18 11:02:52;;;;;;;;;;;;;;;;;;5095609;28;19908;-23
2022/09/18 11:05:18;;;;;;;;;;;;;;;;;;5095115;28;19927;-23
2022/09/18 11:07:44;;;;;;;;;;;;;;;;;;5095323;28;19916;-23
2022/09/18 11:10:10;;;;;;;;;;;;;;;;;;5095433;28;19916;-23
2022/09/18 11:12:36;;;;;;;;;;;;;;;;;;5095445;28;19912;-23
2022/09/18 11:15:02;;;;;;;;;;;;;;;;;;5095223;28;20261;-23
2022/09/18 11:17:28;;;;;;;;;;;;;;;;;;5095069;28;19940;-23
2022/09/18 11:19:54;;;;;;;;;;;;;;;;;;5095127;28;20035;-23
2022/09/18 11:22:20;;;;;;;;;;;;;;;;;;5095062;28;19912;-23
2022/09/18 11:24:46;;;;;;;;;;;;;;;;;;5077229;28;19924;-23
2022/09/18 11:27:12;;;;;;;;;;;;;;;;;;5095279;28;19922;-23
2022/09/18 11:29:38;;;;;;;;;;;;;;;;;;5095232;28;20304;-23
2022/09/18 11:32:04;;;;;;;;;;;;;;;;;;5095145;28;19912;-23
2022/09/18 11:34:30;;;;;;;;;;;;;;;;;;5094984;28;20369;-23
2022/09/18 11:36:56;;;;;;;;;;;;;;;;;;5094996;28;19916;-23
2022/09/18 11:39:23;;;;;;;;;;;;;;;;;;5094960;28;19919;-24
2022/09/18 11:41:49;;;;;;;;;;;;;;;;;;5095092;28;19912;-23
2022/09/18 11:44:15;;;;;;;;;;;;;;;;;;5094853;28;19912;-23
2022/09/18 11:46:41;;;;;;;;;;;;;;;;;;5094810;28;19920;-23
2022/09/18 11:49:07;;;;;;;;;;;;;;;;;;5095082;28;20376;-23
2022/09/18 11:51:33;;;;;;;;;;;;;;;;;;5094993;28;20342;-23
2022/09/18 11:54:01;;;;;;;;;;;;;;;;;;5094730;28;19912;-23
2022/09/18 11:56:27;;;;;;;;;;;;;;;;;;5094925;28;19912;-23
2022/09/18 11:58:53;;;;;;;;;;;;;;;;;;5094711;28;19908;-23
2022/09/18 12:01:20;;;;;;;;;;;;;;;;;;5094731;28;19972;-23
2022/09/18 12:03:48;;;;;;;;;;;;;;;;;;5094591;28;20010;-23
2022/09/18 12:06:14;;;;;;;;;;;;;;;;;;5094401;28;19923;-23
2022/09/18 12:08:40;;;;;;;;;;;;;;;;;;5094751;28;20244;-23
2022/09/18 12:11:06;;;;;;;;;;;;;;;;;;5094555;28;19919;-23
2022/09/18 12:13:32;;;;;;;;;;;;;;;;;;5096478;28;19908;-23
2022/09/18 12:15:58;;;;;;;;;;;;;;;;;;5098835;28;19916;-23
2022/09/18 12:18:25;;;;;;;;;;;;;;;;;;5098589;28;19912;-23
2022/09/18 12:20:51;;;;;;;;;;;;;;;;;;5080747;28;19923;-23
2022/09/18 12:23:17;;;;;;;;;;;;;;;;;;5098709;28;19912;-23
2022/09/18 12:25:43;;;;;;;;;;;;;;;;;;5098776;28;20255;-23
2022/09/18 12:28:09;;;;;;;;;;;;;;;;;;5098588;28;19923;-23
2022/09/18 12:30:35;;;;;;;;;;;;;;;;;;5080359;28;19990;-23
2022/09/18 12:33:01;;;;;;;;;;;;;;;;;;5098546;28;19944;-23
2022/09/18 12:35:27;;;;;;;;;;;;;;;;;;5098180;28;19970;-23
2022/09/18 12:37:53;;;;;;;;;;;;;;;;;;5098401;28;20315;-23
2022/09/18 12:40:19;;;;;;;;;;;;;;;;;;5098249;28;20269;-23
2022/09/18 12:42:45;;;;;;;;;;;;;;;;;;5098290;28;19912;-23
2022/09/18 12:45:11;;;;;;;;;;;;;;;;;;5098054;28;20309;-23
2022/09/18 12:47:37;;;;;;;;;;;;;;;;;;5098347;28;19973;-23
2022/09/18 12:50:03;;;;;;;;;;;;;;;;;;5097960;28;19916;-23
2022/09/18 12:52:29;;;;;;;;;;;;;;;;;;5097859;28;20273;-23
2022/09/18 12:54:57;;;;;;;;;;;;;;;;;;5079914;28;19912;-23
2022/09/18 12:57:23;;;;;;;;;;;;;;;;;;5097827;28;20362;-23
2022/09/18 12:59:49;;;;;;;;;;;;;;;;;;5097838;28;19912;-23
2022/09/18 13:02:15;;;;;;;;;;;;;;;;;;5097982;28;19922;-23
2022/09/18 13:04:43;;;;;;;;;;;;;;;;;;5097725;28;20006;-23
2022/09/18 13:07:09;;;;;;;;;;;;;;;;;;5079494;28;20282;-23
2022/09/18 13:09:35;;;;;;;;;;;;;;;;;;5097622;28;19912;-23
2022/09/18 13:12:01;;;;;;;;;;;;;;;;;;5097445;28;19970;-23
2022/09/18 13:14:26;;;;;;;;;;;;;;;;;;5097500;28;19950;-23
2022/09/18 13:16:52;;;;;;;;;;;;;;;;;;5097396;28;20053;-23
2022/09/18 13:19:18;;;;;;;;;;;;;;;;;;5097580;28;19912;-23
2022/09/18 13:21:44;;;;;;;;;;;;;;;;;;5097428;28;19938;-23
2022/09/18 13:24:10;;;;;;;;;;;;;;;;;;5097339;28;19912;-23
2022/09/18 13:26:37;;;;;;;;;;;;;;;;;;5097164;28;19970;-23
2022/09/18 13:29:04;;;;;;;;;;;;;;;;;;5097208;28;19919;-23
2022/09/18 13:31:30;;;;;;;;;;;;;;;;;;5097442;28;19912;-23
2022/09/18 13:33:56;;;;;;;;;;;;;;;;;;5097063;28;19935;-23
2022/09/18 13:36:22;;;;;;;;;;;;;;;;;;5097412;28;19971;-23
2022/09/18 13:38:49;;;;;;;;;;;;;;;;;;5097114;28;20317;-23
2022/09/18 13:41:15;;;;;;;;;;;;;;;;;;5097060;28;20003;-23
2022/09/18 13:43:41;;;;;;;;;;;;;;;;;;5096964;28;20295;-23
2022/09/18 13:46:08;;;;;;;;;;;;;;;;;;5079066;28;20006;-23
2022/09/18 13:48:34;;;;;;;;;;;;;;;;;;5096757;28;20366;-23
2022/09/18 13:51:00;;;;;;;;;;;;;;;;;;5096737;28;19998;-23
2022/09/18 13:53:26;;;;;;;;;;;;;;;;;;5078809;28;19912;-23
2022/09/18 13:55:52;;;;;;;;;;;;;;;;;;5096709;28;20406;-23
2022/09/18 13:58:18;;;;;;;;;;;;;;;;;;5078720;28;19920;-23
2022/09/18 14:00:44;;;;;;;;;;;;;;;;;;5096916;28;20003;-23
2022/09/18 14:03:10;;;;;;;;;;;;;;;;;;5096776;28;20310;-23
2022/09/18 14:05:37;;;;;;;;;;;;;;;;;;5096490;28;19916;-23
2022/09/18 14:08:03;;;;;;;;;;;;;;;;;;5096291;28;19977;-23
2022/09/18 14:10:29;;;;;;;;;;;;;;;;;;5096356;28;19908;-23
2022/09/18 14:12:55;;;;;;;;;;;;;;;;;;5096284;28;19912;-23
2022/09/18 14:15:21;;;;;;;;;;;;;;;;;;5096343;28;19912;-23
2022/09/18 14:17:47;;;;;;;;;;;;;;;;;;5096308;28;19908;-24
2022/09/18 14:20:13;;;;;;;;;;;;;;;;;;5096256;28;19912;-23
2022/09/18 14:22:40;;;;;;;;;;;;;;;;;;5096140;28;19908;-23
2022/09/18 14:25:06;;;;;;;;;;;;;;;;;;5096137;28;19912;-23
2022/09/18 14:27:32;;;;;;;;;;;;;;;;;;5095944;28;19961;-24
2022/09/18 14:29:58;;;;;;;;;;;;;;;;;;5095981;28;19912;-23
2022/09/18 14:32:24;;;;;;;;;;;;;;;;;;5095941;28;19936;-23
2022/09/18 14:34:52;;;;;;;;;;;;;;;;;;5095910;28;19916;-23
2022/09/18 14:37:18;;;;;;;;;;;;;;;;;;5095638;28;19912;-23
2022/09/18 14:39:45;;;;;;;;;;;;;;;;;;5096046;28;20000;-23
2022/09/18 14:42:11;;;;;;;;;;;;;;;;;;5095719;28;19912;-23
2022/09/18 14:44:37;;;;;;;;;;;;;;;;;;5077888;28;20331;-23
2022/09/18 14:47:03;;;;;;;;;;;;;;;;;;5095905;28;19916;-23
2022/09/18 14:49:29;;;;;;;;;;;;;;;;;;5095744;28;19977;-23
2022/09/18 14:51:55;;;;;;;;;;;;;;;;;;5095558;28;19916;-23
2022/09/18 14:54:21;;;;;;;;;;;;;;;;;;5078544;28;19947;-23
2022/09/18 14:56:46;;;;;;;;;;;;;;;;;;5095566;28;19946;-23
2022/09/18 14:59:12;;;;;;;;;;;;;;;;;;5095522;28;19934;-23
2022/09/18 15:01:39;;;;;;;;;;;;;;;;;;5095464;28;19912;-23
2022/09/18 15:04:05;;;;;;;;;;;;;;;;;;5095365;28;19920;-23
2022/09/18 15:06:31;;;;;;;;;;;;;;;;;;5095087;28;19920;-23
2022/09/18 15:08:57;;;;;;;;;;;;;;;;;;5095655;28;19913;-23
2022/09/18 15:11:23;;;;;;;;;;;;;;;;;;5095263;28;20351;-23
2022/09/18 15:13:49;;;;;;;;;;;;;;;;;;5095235;28;19912;-23
2022/09/18 15:16:14;;;;;;;;;;;;;;;;;;5095142;28;19923;-23
2022/09/18 15:18:41;;;;;;;;;;;;;;;;;;5077302;28;19908;-23
2022/09/18 15:21:07;;;;;;;;;;;;;;;;;;5095476;28;20246;-23
2022/09/18 15:23:33;;;;;;;;;;;;;;;;;;5095035;28;19920;-23
2022/09/18 15:26:00;;;;;;;;;;;;;;;;;;5095096;28;20316;-23
2022/09/18 15:28:26;;;;;;;;;;;;;;;;;;5094798;28;19916;-23
2022/09/18 15:30:55;;;;;;;;;;;;;;;;;;5095361;28;19938;-23
2022/09/18 15:33:25;;;;;;;;;;;;;;;;;;5094991;28;19912;-23
2022/09/18 15:35:51;;;;;;;;;;;;;;;;;;5095017;28;20023;-23
2022/09/18 15:38:17;;;;;;;;;;;;;;;;;;5095036;28;19948;-23
2022/09/18 15:40:43;;;;;;;;;;;;;;;;;;5094917;28;20345;-23
2022/09/18 15:43:08;;;;;;;;;;;;;;;;;;5094836;28;19912;-23
2022/09/18 15:45:34;;;;;;;;;;;;;;;;;;5077005;28;20352;-23
2022/09/18 15:48:00;;;;;;;;;;;;;;;;;;5076091;28;19923;-23
2022/09/18 15:50:26;;;;;;;;;;;;;;;;;;5077466;28;19981;-23
2022/09/18 15:52:53;;;;;;;;;;;;;;;;;;5094632;28;20248;-23
2022/09/18 15:55:21;;;;;;;;;;;;;;;;;;5094969;28;19927;-23
2022/09/18 15:57:47;;;;;;;;;;;;;;;;;;5094661;28;19916;-23
2022/09/18 16:00:13;;;;;;;;;;;;;;;;;;5094690;28;19919;-23
2022/09/18 16:02:39;;;;;;;;;;;;;;;;;;5094640;28;19919;-23
2022/09/18 16:05:05;;;;;;;;;;;;;;;;;;5094607;28;19912;-23
2022/09/18 16:07:32;;;;;;;;;;;;;;;;;;5094326;28;20317;-23
2022/09/18 16:09:58;;;;;;;;;;;;;;;;;;5094649;28;19999;-23
2022/09/18 16:12:24;;;;;;;;;;;;;;;;;;5094796;28;20223;-23
2022/09/18 16:14:50;;;;;;;;;;;;;;;;;;5094679;28;19912;-23
2022/09/18 16:17:16;;;;;;;;;;;;;;;;;;5094550;28;19912;-23
2022/09/18 16:19:42;;;;;;;;;;;;;;;;;;5094596;28;19951;-23
2022/09/18 16:22:09;;;;;;;;;;;;;;;;;;5094415;28;19913;-23
2022/09/18 16:24:35;;;;;;;;;;;;;;;;;;5094490;28;20327;-23
2022/09/18 16:27:01;;;;;;;;;;;;;;;;;;5094872;28;19916;-23
2022/09/18 16:29:27;;;;;;;;;;;;;;;;;;5094445;28;19966;-23
2022/09/18 16:31:53;;;;;;;;;;;;;;;;;;5094301;28;19939;-23
2022/09/18 16:34:19;;;;;;;;;;;;;;;;;;5094674;28;19958;-23
2022/09/18 16:36:45;;;;;;;;;;;;;;;;;;5094379;28;20385;-23